Time;durP1;ratioP1;P1;durP2;ratioP2;P2;SDS_P1;SDS_P2;PMS_P1;PMS_P2;Temp;Humidity;BMP_temperature;BMP_pressure;BME280_temperature;BME280_humidity;BME280_pressure;Samples;Min_cycle;Max_cycle;Signal;HPM_P1;HPM_P2
2022/04/04 00:01:41;;;;;;;16.23;14.67;;;-0.40;99.90;;;;;;5111360;27;20644;-82
2022/04/04 00:04:08;;;;;;;16.23;14.50;;;-0.30;99.90;;;;;;5106224;27;21107;-82
2022/04/04 00:06:35;;;;;;;15.00;13.63;;;-0.40;99.90;;;;;;5117608;27;20811;-82
2022/04/04 00:09:02;;;;;;;15.37;14.13;;;-0.40;99.90;;;;;;5108762;27;20639;-83
2022/04/04 00:11:30;;;;;;;18.30;15.50;;;-0.40;99.90;;;;;;5110882;27;20767;-82
2022/04/04 00:13:57;;;;;;;15.20;13.90;;;-0.60;99.90;;;;;;5109442;27;20621;-82
2022/04/04 00:16:24;;;;;;;16.67;15.17;;;-0.60;99.90;;;;;;5104586;27;20620;-82
2022/04/04 00:18:50;;;;;;;15.77;14.33;;;-0.80;99.90;;;;;;5107777;27;20629;-82
2022/04/04 00:21:18;;;;;;;17.00;15.50;;;-0.50;99.90;;;;;;5112497;27;21182;-82
2022/04/04 00:23:44;;;;;;;17.40;15.80;;;-0.90;99.90;;;;;;5107533;27;20622;-82
2022/04/04 00:26:11;;;;;;;17.03;15.43;;;-0.40;99.90;;;;;;5115101;27;20646;-82
2022/04/04 00:28:39;;;;;;;17.70;15.90;;;-0.40;99.90;;;;;;5106657;28;21184;-81
2022/04/04 00:31:06;;;;;;;18.20;16.43;;;-0.20;99.90;;;;;;5111768;27;20676;-82
2022/04/04 00:33:33;;;;;;;17.30;15.60;;;-0.60;99.90;;;;;;5111129;27;20655;-82
2022/04/04 00:35:59;;;;;;;18.50;16.67;;;-0.50;99.90;;;;;;5110719;27;20654;-82
2022/04/04 00:38:26;;;;;;;17.17;15.63;;;-0.50;99.90;;;;;;5111697;27;20625;-82
2022/04/04 00:40:53;;;;;;;17.80;16.10;;;-0.40;99.90;;;;;;5111003;27;20654;-82
2022/04/04 00:43:20;;;;;;;20.33;18.23;;;-0.70;99.90;;;;;;5105656;27;20611;-82
2022/04/04 00:45:49;;;;;;;19.37;17.30;;;-0.60;99.90;;;;;;5110116;27;20683;-82
2022/04/04 00:48:16;;;;;;;19.40;17.40;;;-0.60;99.90;;;;;;5107313;27;20627;-82
2022/04/04 00:50:43;;;;;;;17.20;15.63;;;-0.70;99.90;;;;;;5098660;28;21057;-82
2022/04/04 00:53:11;;;;;;;16.90;15.43;;;-0.50;99.90;;;;;;5098021;28;20675;-81
2022/04/04 00:55:38;;;;;;;17.43;15.83;;;-0.40;99.90;;;;;;5103909;28;20637;-82
2022/04/04 00:58:06;;;;;;;18.00;16.30;;;-0.70;99.90;;;;;;5110501;27;20619;-82
2022/04/04 01:00:33;;;;;;;17.83;16.13;;;-0.60;99.90;;;;;;5111956;27;21066;-82
2022/04/04 01:03:02;;;;;;;17.63;15.93;;;-0.50;99.90;;;;;;5110259;27;20628;-82
2022/04/04 01:05:30;;;;;;;18.53;16.70;;;-0.70;99.90;;;;;;5107604;28;20623;-82
2022/04/04 01:07:57;;;;;;;18.60;16.90;;;-0.40;99.90;;;;;;5113264;28;21164;-81
2022/04/04 01:10:24;;;;;;;17.30;15.80;;;-1.20;99.90;;;;;;5104133;28;20643;-82
2022/04/04 01:12:52;;;;;;;16.67;14.93;;;-0.70;99.90;;;;;;5112271;28;20672;-82
2022/04/04 01:15:21;;;;;;;17.60;14.97;;;-0.80;99.90;;;;;;5103609;27;21232;-82
2022/04/04 01:17:48;;;;;;;18.13;16.43;;;-0.60;99.90;;;;;;5108221;28;20823;-82
2022/04/04 01:20:16;;;;;;;16.67;15.17;;;-0.70;99.90;;;;;;5112732;27;20658;-82
2022/04/04 01:22:47;;;;;;;17.40;15.63;;;-0.80;99.90;;;;;;5104410;28;20628;-82
2022/04/04 01:25:16;;;;;;;17.53;15.63;;;-0.70;99.90;;;;;;5105953;28;20613;-82
2022/04/04 01:27:49;;;;;;;17.10;15.67;;;-0.70;99.90;;;;;;5106718;27;20627;-82
2022/04/04 01:30:16;;;;;;;18.00;16.10;;;-0.80;99.90;;;;;;5107657;28;20655;-82
2022/04/04 01:32:43;;;;;;;18.40;16.80;;;-1.00;99.90;;;;;;5117003;27;20721;-83
2022/04/04 01:35:10;;;;;;;17.17;15.67;;;-1.10;99.90;;;;;;5108485;28;20637;-83
2022/04/04 01:37:37;;;;;;;18.00;16.20;;;-0.70;99.90;;;;;;5110564;28;21211;-84
2022/04/04 01:40:06;;;;;;;20.63;17.60;;;-0.90;99.90;;;;;;5107860;28;20662;-84
2022/04/04 01:42:35;;;;;;;19.23;17.47;;;-0.60;99.90;;;;;;5105835;28;20627;-84
2022/04/04 01:45:02;;;;;;;18.93;16.93;;;-1.00;99.90;;;;;;5111721;27;20720;-84
2022/04/04 01:47:29;;;;;;;20.37;17.93;;;-0.90;99.90;;;;;;5107856;27;20632;-84
2022/04/04 01:49:55;;;;;;;19.53;17.70;;;-0.70;99.90;;;;;;5113250;27;20641;-84
2022/04/04 01:52:22;;;;;;;18.43;16.73;;;-1.00;99.90;;;;;;5116716;27;20652;-84
2022/04/04 01:54:49;;;;;;;18.87;16.90;;;-0.80;99.90;;;;;;5111046;27;21193;-83
2022/04/04 01:57:16;;;;;;;19.10;17.17;;;-0.80;99.90;;;;;;5112831;27;20638;-82
2022/04/04 01:59:44;;;;;;;17.70;16.10;;;-1.00;99.90;;;;;;5116592;27;21244;-84
2022/04/04 02:02:11;;;;;;;17.70;16.10;;;-0.80;99.90;;;;;;5111117;27;20627;-84
2022/04/04 02:04:38;;;;;;;17.30;15.63;;;-0.90;99.90;;;;;;5109625;27;20623;-84
2022/04/04 02:07:06;;;;;;;17.53;15.93;;;-1.10;99.90;;;;;;5116178;27;20584;-83
2022/04/04 02:09:33;;;;;;;18.20;16.50;;;-0.90;99.90;;;;;;5112935;27;20671;-83
2022/04/04 02:11:59;;;;;;;18.70;17.20;;;-1.00;99.90;;;;;;5117423;27;20682;-84
2022/04/04 02:14:26;;;;;;;17.40;15.70;;;-0.90;99.90;;;;;;5113945;27;20635;-84
2022/04/04 02:16:54;;;;;;;17.00;15.30;;;-0.90;99.90;;;;;;5107934;27;21023;-84
2022/04/04 02:19:21;;;;;;;19.27;17.40;;;-1.20;99.90;;;;;;5119154;27;20654;-83
2022/04/04 02:21:48;;;;;;;17.33;15.83;;;-1.10;99.90;;;;;;5109708;27;20635;-84
2022/04/04 02:24:14;;;;;;;18.63;15.03;;;-1.10;99.90;;;;;;5114997;27;20642;-83
2022/04/04 02:26:42;;;;;;;18.90;17.10;;;-1.00;99.90;;;;;;5112897;27;20636;-83
2022/04/04 02:29:08;;;;;;;18.63;16.30;;;-1.10;99.90;;;;;;5109551;27;20637;-83
2022/04/04 02:31:35;;;;;;;17.57;15.97;;;-1.20;99.90;;;;;;5112014;27;20626;-83
2022/04/04 02:34:03;;;;;;;17.97;16.40;;;-1.30;99.90;;;;;;5113901;27;20647;-83
2022/04/04 02:36:30;;;;;;;18.67;17.03;;;-1.10;99.90;;;;;;5111803;27;20635;-83
2022/04/04 02:38:57;;;;;;;15.80;14.40;;;-1.10;99.90;;;;;;5111514;27;20627;-84
2022/04/04 02:41:23;;;;;;;18.27;16.43;;;-1.20;99.90;;;;;;5112268;27;20659;-84
2022/04/04 02:43:51;;;;;;;17.70;16.00;;;-1.20;99.90;;;;;;5110041;27;20660;-83
2022/04/04 02:46:17;;;;;;;18.53;16.83;;;-1.20;99.90;;;;;;5104078;27;21235;-83
2022/04/04 02:48:44;;;;;;;17.20;15.60;;;-1.40;99.90;;;;;;5108866;27;20626;-83
2022/04/04 02:51:12;;;;;;;18.97;17.17;;;-1.40;99.90;;;;;;5111456;27;20650;-84
2022/04/04 02:53:39;;;;;;;17.40;15.73;;;-1.30;99.90;;;;;;5112501;27;20666;-83
2022/04/04 02:58:50;;;;;;;18.07;16.20;;;-1.40;99.90;;;;;;5112840;27;20704;-82
2022/04/04 03:01:19;;;;;;;17.03;15.33;;;-1.10;99.90;;;;;;5113619;27;20664;-82
2022/04/04 03:03:46;;;;;;;17.33;15.63;;;-1.00;99.90;;;;;;5109240;27;20624;-82
2022/04/04 03:06:14;;;;;;;18.40;16.63;;;-1.40;99.90;;;;;;5112928;27;21190;-83
2022/04/04 03:08:41;;;;;;;19.50;17.57;;;-1.40;99.90;;;;;;5107973;27;21213;-84
2022/04/04 03:11:08;;;;;;;17.73;16.13;;;-1.10;99.90;;;;;;5112997;27;20655;-83
2022/04/04 03:13:34;;;;;;;18.07;16.40;;;-1.40;99.90;;;;;;5102617;27;20659;-83
2022/04/04 03:16:01;;;;;;;18.07;16.33;;;-1.40;99.90;;;;;;5109180;27;20639;-84
2022/04/04 03:18:28;;;;;;;16.90;15.20;;;-1.20;99.90;;;;;;5110790;27;20970;-83
2022/04/04 03:20:55;;;;;;;19.33;17.43;;;-1.30;99.90;;;;;;5113456;27;20655;-82
2022/04/04 03:23:24;;;;;;;17.90;16.17;;;-1.40;99.90;;;;;;5110508;27;20607;-83
2022/04/04 03:25:51;;;;;;;17.03;15.53;;;-1.20;99.90;;;;;;5117321;27;20623;-82
2022/04/04 03:28:18;;;;;;;17.33;15.63;;;-1.20;99.90;;;;;;5110217;27;20627;-84
2022/04/04 03:30:44;;;;;;;17.60;16.00;;;-1.40;99.90;;;;;;5112345;27;20995;-83
2022/04/04 03:33:11;;;;;;;18.93;17.13;;;-1.20;99.90;;;;;;5113538;27;20667;-81
2022/04/04 03:35:38;;;;;;;18.40;16.60;;;-1.10;99.90;;;;;;5111631;27;20642;-84
2022/04/04 03:38:07;;;;;;;18.73;16.83;;;-1.10;99.90;;;;;;5109884;27;20631;-84
2022/04/04 03:40:36;;;;;;;18.17;16.33;;;-1.30;99.90;;;;;;5112723;27;20650;-81
2022/04/04 03:43:03;;;;;;;17.97;16.27;;;-1.10;99.90;;;;;;5107657;27;21240;-82
2022/04/04 03:45:31;;;;;;;18.50;16.60;;;-1.20;99.90;;;;;;5107780;27;21296;-82
2022/04/04 03:47:59;;;;;;;17.13;15.53;;;-1.40;99.90;;;;;;5111109;27;20631;-82
2022/04/04 03:50:28;;;;;;;17.53;15.23;;;-1.30;99.90;;;;;;5105878;27;20667;-82
2022/04/04 03:52:56;;;;;;;17.70;15.70;;;-1.20;99.90;;;;;;5109342;27;20648;-82
2022/04/04 03:55:26;;;;;;;16.63;15.00;;;-1.20;99.90;;;;;;5108345;27;21228;-82
2022/04/04 03:57:54;;;;;;;17.50;15.70;;;-1.40;99.90;;;;;;5098457;28;21040;-81
2022/04/04 04:00:22;;;;;;;17.37;15.60;;;-1.40;99.90;;;;;;5113308;27;20659;-82
2022/04/04 04:02:49;;;;;;;15.80;14.40;;;-1.40;99.90;;;;;;5108502;27;20656;-82
2022/04/04 04:05:16;;;;;;;16.63;15.13;;;-1.50;99.90;;;;;;5112364;27;20638;-82
2022/04/04 04:07:43;;;;;;;16.53;15.10;;;-1.40;99.90;;;;;;5110153;27;20623;-82
2022/04/04 04:10:11;;;;;;;16.57;14.90;;;-1.60;99.90;;;;;;5102236;27;21233;-82
2022/04/04 04:12:39;;;;;;;17.50;15.70;;;-1.40;99.90;;;;;;5110562;27;20654;-82
2022/04/04 04:15:09;;;;;;;17.50;15.80;;;-1.60;99.90;;;;;;5110682;27;20731;-81
2022/04/04 04:17:36;;;;;;;18.27;16.57;;;-1.50;99.90;;;;;;5104066;27;20648;-82
2022/04/04 04:20:20;;;;;;;16.10;14.50;;;-1.50;99.90;;;;;;5110223;27;20653;-82
2022/04/04 04:22:47;;;;;;;16.60;15.00;;;-1.20;99.90;;;;;;5108169;27;20666;-82
2022/04/04 04:25:15;;;;;;;17.23;15.43;;;-1.40;99.90;;;;;;5107711;27;21194;-82
2022/04/04 04:27:42;;;;;;;16.17;14.60;;;-1.50;99.90;;;;;;5108225;27;20654;-82
2022/04/04 04:30:13;;;;;;;17.23;15.47;;;-1.40;99.90;;;;;;5106940;27;20718;-82
2022/04/04 04:32:41;;;;;;;17.40;15.43;;;-1.50;99.90;;;;;;5115349;27;20636;-82
2022/04/04 04:35:09;;;;;;;17.90;16.17;;;-1.50;99.90;;;;;;5111995;27;20729;-82
2022/04/04 04:37:36;;;;;;;17.80;16.10;;;-1.60;99.90;;;;;;5106041;27;20970;-82
2022/04/04 04:40:03;;;;;;;16.30;14.70;;;-1.70;99.90;;;;;;5114065;27;20651;-83
2022/04/04 04:42:32;;;;;;;17.47;15.77;;;-1.40;99.90;;;;;;5107707;27;20989;-82
2022/04/04 04:44:59;;;;;;;16.93;15.13;;;-1.30;99.90;;;;;;5104076;28;20690;-83
2022/04/04 04:47:28;;;;;;;17.07;15.47;;;-1.50;99.90;;;;;;5111168;27;20631;-82
2022/04/04 04:49:55;;;;;;;17.43;15.83;;;-1.30;99.90;;;;;;5104413;27;20666;-83
2022/04/04 04:52:21;;;;;;;16.27;14.70;;;-1.50;99.90;;;;;;5104153;27;20989;-82
2022/04/04 04:54:49;;;;;;;16.77;15.27;;;-1.50;99.90;;;;;;5111033;27;21045;-82
2022/04/04 04:57:15;;;;;;;16.07;14.37;;;-1.20;99.90;;;;;;5103467;27;20627;-82
2022/04/04 04:59:42;;;;;;;17.03;15.50;;;-1.80;99.90;;;;;;5111396;27;20729;-82
2022/04/04 05:02:09;;;;;;;19.93;18.10;;;-1.50;99.90;;;;;;5109054;27;20639;-82
2022/04/04 05:04:37;;;;;;;17.57;15.87;;;-1.70;99.90;;;;;;5106995;28;20618;-82
2022/04/04 05:07:05;;;;;;;17.30;15.63;;;-1.30;99.90;;;;;;5118943;27;20741;-82
2022/04/04 05:09:31;;;;;;;18.83;16.47;;;-1.60;99.90;;;;;;5107267;28;20664;-83
2022/04/04 05:11:58;;;;;;;16.43;14.80;;;-1.40;99.90;;;;;;5107809;28;20700;-82
2022/04/04 05:14:25;;;;;;;18.97;17.20;;;-1.40;99.90;;;;;;5108118;28;20670;-82
2022/04/04 05:16:53;;;;;;;17.27;15.67;;;-1.40;99.90;;;;;;5103658;28;20688;-82
2022/04/04 05:19:22;;;;;;;23.17;16.00;;;-1.40;99.90;;;;;;5113437;28;20645;-83
2022/04/04 05:21:51;;;;;;;17.60;16.03;;;-1.30;99.90;;;;;;5107653;27;20646;-83
2022/04/04 05:24:18;;;;;;;16.17;14.57;;;-1.70;99.90;;;;;;5112744;27;21227;-82
2022/04/04 05:26:46;;;;;;;16.13;14.73;;;-1.50;99.90;;;;;;5105741;27;20628;-82
2022/04/04 05:29:15;;;;;;;19.10;15.73;;;-1.50;99.90;;;;;;5108302;27;20636;-82
2022/04/04 05:31:42;;;;;;;16.00;14.23;;;-1.40;99.90;;;;;;5120036;27;20797;-83
2022/04/04 05:34:08;;;;;;;15.33;13.73;;;-1.50;99.90;;;;;;5115611;27;21052;-82
2022/04/04 05:36:35;;;;;;;19.30;17.50;;;-1.60;99.90;;;;;;5111185;27;20623;-83
2022/04/04 05:39:05;;;;;;;16.30;14.33;;;-1.30;99.90;;;;;;5116545;27;20966;-83
2022/04/04 05:41:32;;;;;;;16.47;15.07;;;-1.20;99.90;;;;;;5110113;27;21176;-83
2022/04/04 05:43:59;;;;;;;16.30;14.57;;;-1.40;99.90;;;;;;5113554;27;20622;-83
2022/04/04 05:46:26;;;;;;;15.67;14.13;;;-1.30;99.90;;;;;;5109608;27;20626;-82
2022/04/04 05:48:53;;;;;;;16.77;15.27;;;-1.40;99.90;;;;;;5105952;27;20637;-83
2022/04/04 05:51:19;;;;;;;16.17;14.03;;;-1.60;99.90;;;;;;5111883;27;20666;-83
2022/04/04 05:53:47;;;;;;;16.17;14.47;;;-1.30;99.90;;;;;;5114849;27;20667;-82
2022/04/04 05:56:15;;;;;;;16.60;14.90;;;-1.20;99.90;;;;;;5112180;27;20633;-83
2022/04/04 05:58:43;;;;;;;13.93;12.73;;;-1.30;99.90;;;;;;5106488;27;20979;-82
2022/04/04 06:01:09;;;;;;;16.10;14.40;;;-1.00;99.90;;;;;;5119914;27;21247;-82
2022/04/04 06:03:36;;;;;;;16.60;14.87;;;-1.10;99.90;;;;;;5107162;27;20654;-83
2022/04/04 06:06:04;;;;;;;17.20;15.50;;;-0.80;99.90;;;;;;5116262;27;20907;-82
2022/04/04 06:08:31;;;;;;;16.47;14.97;;;-0.90;99.90;;;;;;5113112;27;20630;-82
2022/04/04 06:10:57;;;;;;;15.53;14.07;;;-0.90;99.90;;;;;;5109956;27;21228;-82
2022/04/04 06:13:25;;;;;;;16.13;14.70;;;-0.80;99.90;;;;;;5107543;27;20992;-81
2022/04/04 06:15:53;;;;;;;15.50;14.10;;;-0.60;99.90;;;;;;5102135;27;20630;-82
2022/04/04 06:18:20;;;;;;;16.97;15.37;;;-0.50;99.90;;;;;;5105490;27;21192;-82
2022/04/04 06:20:47;;;;;;;16.97;15.37;;;-0.60;99.90;;;;;;5111794;27;21194;-82
2022/04/04 06:23:15;;;;;;;16.93;15.37;;;-0.40;99.90;;;;;;5107574;27;20622;-82
2022/04/04 06:25:42;;;;;;;17.50;16.00;;;-0.20;99.90;;;;;;5113735;27;20631;-82
2022/04/04 06:28:09;;;;;;;18.10;16.40;;;-0.30;99.90;;;;;;5104581;27;20617;-82
2022/04/04 06:30:37;;;;;;;17.63;16.13;;;0.00;99.90;;;;;;5104722;27;20952;-84
2022/04/04 06:33:06;;;;;;;17.07;15.53;;;0.50;99.90;;;;;;5111922;27;20630;-82
2022/04/04 06:35:32;;;;;;;16.70;15.13;;;0.50;99.90;;;;;;5109314;27;20631;-81
2022/04/04 06:38:02;;;;;;;16.63;15.13;;;0.90;99.90;;;;;;5107428;27;20620;-82
2022/04/04 06:40:30;;;;;;;16.73;15.23;;;0.70;99.90;;;;;;5114809;27;20709;-82
2022/04/04 06:42:58;;;;;;;15.90;14.50;;;0.80;99.90;;;;;;5104007;27;20684;-82
2022/04/04 06:45:26;;;;;;;17.23;15.80;;;0.90;99.90;;;;;;5111180;27;20608;-82
2022/04/04 06:47:54;;;;;;;18.30;16.07;;;0.40;99.90;;;;;;5107653;27;21293;-82
2022/04/04 06:50:22;;;;;;;17.80;16.10;;;0.60;99.90;;;;;;5104027;27;20649;-82
2022/04/04 06:52:52;;;;;;;17.83;16.27;;;0.20;99.90;;;;;;5103867;27;21053;-82
2022/04/04 06:55:20;;;;;;;16.80;15.30;;;0.80;99.90;;;;;;5109497;27;20681;-82
2022/04/04 06:57:47;;;;;;;17.33;15.73;;;0.90;99.90;;;;;;5106298;27;20650;-82
2022/04/04 07:00:16;;;;;;;16.27;14.87;;;0.90;99.90;;;;;;5112518;27;20659;-82
2022/04/04 07:02:44;;;;;;;16.63;15.23;;;0.80;99.90;;;;;;5106622;27;20629;-82
2022/04/04 07:05:12;;;;;;;17.77;15.70;;;0.70;99.90;;;;;;5108809;27;21090;-82
2022/04/04 07:07:39;;;;;;;16.10;14.70;;;0.80;99.90;;;;;;5107548;27;20628;-84
2022/04/04 07:10:06;;;;;;;16.20;14.77;;;0.80;99.90;;;;;;5105373;27;20704;-81
2022/04/04 07:12:34;;;;;;;15.93;14.53;;;1.30;99.90;;;;;;5107656;27;20616;-81
2022/04/04 07:15:02;;;;;;;14.87;13.57;;;1.30;99.90;;;;;;5110282;27;20734;-82
2022/04/04 07:17:29;;;;;;;15.57;14.20;;;1.40;99.90;;;;;;5105723;27;20715;-82
2022/04/04 07:19:56;;;;;;;14.80;13.50;;;1.20;99.90;;;;;;5110300;27;20658;-81
2022/04/04 07:22:28;;;;;;;14.37;13.07;;;1.30;99.90;;;;;;5103529;27;20619;-81
2022/04/04 07:24:54;;;;;;;15.10;13.60;;;1.40;99.90;;;;;;5111489;27;20699;-81
2022/04/04 07:27:21;;;;;;;15.23;13.63;;;1.00;99.90;;;;;;5108972;27;20630;-82
2022/04/04 07:29:48;;;;;;;16.10;14.40;;;1.70;99.90;;;;;;5104721;27;20656;-82
2022/04/04 07:32:14;;;;;;;14.93;13.60;;;1.80;99.90;;;;;;5103221;27;20619;-81
2022/04/04 07:34:41;;;;;;;15.17;13.77;;;1.50;99.90;;;;;;5101221;27;20679;-82
2022/04/04 07:37:08;;;;;;;15.97;14.53;;;1.60;99.90;;;;;;5108515;27;20742;-82
2022/04/04 07:39:36;;;;;;;14.37;13.17;;;2.40;99.90;;;;;;5104478;27;20813;-82
2022/04/04 07:42:03;;;;;;;14.30;13.03;;;2.40;99.90;;;;;;5096613;27;20633;-82
2022/04/04 07:44:30;;;;;;;13.90;12.50;;;2.50;99.90;;;;;;5097200;28;20682;-82
2022/04/04 07:46:57;;;;;;;14.03;12.83;;;2.70;99.90;;;;;;5102831;27;20660;-82
2022/04/04 07:49:26;;;;;;;13.23;12.03;;;2.80;99.90;;;;;;5103327;27;20713;-82
2022/04/04 07:51:53;;;;;;;13.47;12.07;;;2.50;99.90;;;;;;5109703;27;20617;-82
2022/04/04 07:54:20;;;;;;;13.87;12.57;;;3.00;99.90;;;;;;5103989;27;20656;-82
2022/04/04 07:56:48;;;;;;;14.57;12.97;;;3.20;99.90;;;;;;5104889;27;20615;-83
2022/04/04 07:59:16;;;;;;;14.33;12.70;;;3.20;99.90;;;;;;5105192;27;20636;-83
2022/04/04 08:01:42;;;;;;;13.80;12.27;;;3.30;99.90;;;;;;5106765;27;20637;-83
2022/04/04 08:04:09;;;;;;;15.03;13.73;;;3.10;99.90;;;;;;5101644;27;21062;-82
2022/04/04 08:06:36;;;;;;;14.53;13.37;;;3.30;99.90;;;;;;5111373;27;20616;-83
2022/04/04 08:09:03;;;;;;;11.57;10.63;;;3.60;99.90;;;;;;5106414;27;20981;-83
2022/04/04 08:11:29;;;;;;;13.30;12.03;;;3.30;99.90;;;;;;5106894;27;21121;-82
2022/04/04 08:13:58;;;;;;;12.03;11.10;;;3.50;99.90;;;;;;5106846;27;20609;-82
2022/04/04 08:16:26;;;;;;;11.97;10.90;;;3.60;99.90;;;;;;5104963;27;20622;-82
2022/04/04 08:18:53;;;;;;;12.03;10.87;;;3.60;99.90;;;;;;5109563;27;20660;-82
2022/04/04 08:21:20;;;;;;;12.07;10.97;;;3.40;99.90;;;;;;5107708;27;20728;-83
2022/04/04 08:23:48;;;;;;;12.80;11.70;;;3.90;99.90;;;;;;5103266;27;20638;-83
2022/04/04 08:26:16;;;;;;;12.23;11.27;;;4.00;99.90;;;;;;5105873;27;20637;-83
2022/04/04 08:28:42;;;;;;;11.00;10.10;;;4.20;99.90;;;;;;5103785;27;20634;-83
2022/04/04 08:31:10;;;;;;;13.33;10.73;;;4.30;99.90;;;;;;5111661;27;20645;-83
2022/04/04 08:33:38;;;;;;;12.93;11.70;;;4.60;99.90;;;;;;5109592;27;20982;-82
2022/04/04 08:36:06;;;;;;;11.67;10.57;;;4.70;99.90;;;;;;5104090;27;20700;-82
2022/04/04 08:38:35;;;;;;;9.80;9.00;;;4.80;99.90;;;;;;5105176;27;21004;-83
2022/04/04 08:41:04;;;;;;;9.00;8.07;;;4.90;99.90;;;;;;5104552;27;20650;-81
2022/04/04 08:43:36;;;;;;;8.90;8.10;;;4.20;99.90;;;;;;5106421;27;20877;-82
2022/04/04 08:46:06;;;;;;;8.40;7.70;;;4.80;99.90;;;;;;5102613;27;20682;-81
2022/04/04 08:48:35;;;;;;;9.40;8.60;;;4.70;99.90;;;;;;5105905;27;21217;-82
2022/04/04 08:51:02;;;;;;;8.73;8.03;;;5.10;99.90;;;;;;5106074;28;20614;-81
2022/04/04 08:53:29;;;;;;;9.23;8.40;;;4.90;99.90;;;;;;5113579;27;21678;-82
2022/04/04 08:55:57;;;;;;;7.93;7.33;;;5.20;99.90;;;;;;5103647;28;20639;-82
2022/04/04 08:58:24;;;;;;;11.97;10.90;;;5.50;98.10;;;;;;5096866;27;20687;-82
2022/04/04 09:00:51;;;;;;;9.13;8.33;;;5.50;97.20;;;;;;5106447;27;20642;-83
2022/04/04 09:03:21;;;;;;;8.90;8.30;;;5.10;97.30;;;;;;5105865;27;20633;-82
2022/04/04 09:05:55;;;;;;;9.10;8.17;;;5.70;96.70;;;;;;5112658;28;20674;-82
2022/04/04 09:08:23;;;;;;;10.30;9.30;;;5.80;95.90;;;;;;5104982;27;20646;-82
2022/04/04 09:10:54;;;;;;;9.00;8.20;;;5.40;92.90;;;;;;5103608;27;21012;-82
2022/04/04 09:13:22;;;;;;;6.70;6.20;;;6.10;90.60;;;;;;5106091;27;20663;-82
2022/04/04 09:15:57;;;;;;;7.57;6.90;;;5.70;89.80;;;;;;5104938;28;21003;-82
2022/04/04 09:18:46;;;;;;;6.43;6.03;;;5.90;84.20;;;;;;5098739;28;20977;-82
2022/04/04 09:21:31;;;;;;;8.00;7.40;;;6.20;78.20;;;;;;5102524;28;20751;-82
2022/04/04 09:24:01;;;;;;;7.30;6.70;;;6.20;78.20;;;;;;5101389;28;20615;-81
2022/04/04 09:26:31;;;;;;;8.50;7.60;;;5.90;75.60;;;;;;5106019;27;20624;-82
2022/04/04 09:28:59;;;;;;;6.57;6.07;;;6.10;77.00;;;;;;5097586;28;20612;-81
2022/04/04 09:31:26;;;;;;;7.43;6.73;;;6.40;71.80;;;;;;5101466;27;20639;-81
2022/04/04 09:33:57;;;;;;;7.70;7.00;;;6.50;71.40;;;;;;5108598;27;20626;-81
2022/04/04 09:36:25;;;;;;;6.80;6.30;;;6.50;70.90;;;;;;5100006;27;20612;-81
2022/04/04 09:39:02;;;;;;;6.30;5.90;;;6.20;65.90;;;;;;5104866;27;21477;-81
2022/04/04 09:41:28;;;;;;;6.80;6.30;;;6.20;62.20;;;;;;5102689;28;20626;-81
2022/04/04 09:43:57;;;;;;;5.70;5.30;;;6.10;64.70;;;;;;5104379;28;20622;-82
2022/04/04 09:46:24;;;;;;;7.23;6.63;;;6.10;64.90;;;;;;5103092;28;21225;-81
2022/04/04 09:49:14;;;;;;;6.43;5.93;;;6.60;68.10;;;;;;5103064;28;20611;-81
2022/04/04 09:51:44;;;;;;;6.73;6.03;;;6.70;65.00;;;;;;5106502;28;20619;-81
2022/04/04 09:54:16;;;;;;;6.70;6.20;;;6.70;64.40;;;;;;5103589;28;20658;-81
2022/04/04 09:56:43;;;;;;;6.00;5.57;;;6.80;68.50;;;;;;5104749;28;20638;-81
2022/04/04 09:59:14;;;;;;;5.67;5.17;;;7.00;63.30;;;;;;5106886;27;20615;-81
2022/04/04 10:01:42;;;;;;;6.40;5.90;;;6.50;59.40;;;;;;5103586;28;20635;-81
2022/04/04 10:04:12;;;;;;;5.90;5.50;;;6.70;58.60;;;;;;5101542;27;20684;-83
2022/04/04 10:06:39;;;;;;;6.70;6.10;;;6.30;60.40;;;;;;5108644;27;20718;-83
2022/04/04 10:09:08;;;;;;;6.40;5.90;;;7.10;61.10;;;;;;5104027;27;20742;-83
2022/04/04 10:11:37;;;;;;;5.97;5.57;;;7.00;61.10;;;;;;5112324;27;20980;-82
2022/04/04 10:14:05;;;;;;;6.50;5.97;;;7.00;60.10;;;;;;5109130;27;20612;-83
2022/04/04 10:16:34;;;;;;;5.67;5.27;;;6.60;59.50;;;;;;5105436;27;21186;-82
2022/04/04 10:19:01;;;;;;;6.33;5.80;;;6.90;59.70;;;;;;5107251;27;20610;-83
2022/04/04 10:21:28;;;;;;;6.20;5.70;;;6.90;59.00;;;;;;5109752;27;20645;-83
2022/04/04 10:23:58;;;;;;;5.97;5.57;;;7.40;61.00;;;;;;5108749;27;20626;-83
2022/04/04 10:26:30;;;;;;;6.70;6.20;;;7.70;59.90;;;;;;5106097;27;20655;-82
2022/04/04 10:29:14;;;;;;;5.90;5.50;;;7.80;59.50;;;;;;5107175;27;20693;-83
2022/04/04 10:31:47;;;;;;;7.27;6.57;;;7.90;58.80;;;;;;5108631;27;20618;-83
2022/04/04 10:34:16;;;;;;;6.30;5.80;;;8.00;58.70;;;;;;5108828;27;20681;-83
2022/04/04 10:37:00;;;;;;;5.90;5.50;;;8.20;60.10;;;;;;5103347;27;21027;-82
2022/04/04 10:39:44;;;;;;;6.60;6.10;;;8.50;60.30;;;;;;5113250;27;20622;-82
2022/04/04 10:42:33;;;;;;;6.53;5.93;;;8.60;60.90;;;;;;5107508;27;21157;-82
2022/04/04 10:45:02;;;;;;;6.83;6.33;;;8.60;61.00;;;;;;5104438;27;20679;-82
2022/04/04 10:47:36;;;;;;;7.13;6.60;;;8.80;59.70;;;;;;5106610;27;21181;-82
2022/04/04 10:50:18;;;;;;;6.80;6.30;;;8.90;61.10;;;;;;5103935;27;20623;-82
2022/04/04 10:52:45;;;;;;;6.73;6.23;;;9.10;61.60;;;;;;5107254;27;20732;-83
2022/04/04 10:55:52;;;;;;;8.30;6.87;;;9.40;62.20;;;;;;5108808;27;20638;-83
2022/04/04 10:58:29;;;;;;;7.20;6.50;;;9.60;61.40;;;;;;5102843;27;21084;-83
2022/04/04 11:01:00;;;;;;;7.20;6.60;;;9.90;60.00;;;;;;5107334;27;21068;-83
2022/04/04 11:03:28;;;;;;;6.60;6.20;;;10.10;57.70;;;;;;5097435;27;20628;-83
2022/04/04 11:09:04;;;;;;;6.60;6.10;;;10.30;56.80;;;;;;5105143;27;20607;-83
2022/04/04 11:11:52;;;;;;;6.67;6.17;;;10.40;56.50;;;;;;5107033;27;20683;-83
2022/04/04 11:14:46;;;;;;;8.10;6.90;;;10.60;57.60;;;;;;5107411;27;20731;-83
2022/04/04 11:17:30;;;;;;;6.10;5.70;;;10.80;54.80;;;;;;5107784;27;21150;-84
2022/04/04 11:20:02;;;;;;;6.37;5.87;;;10.90;54.40;;;;;;5103363;27;20730;-83
2022/04/04 11:22:32;;;;;;;6.77;6.17;;;11.20;55.20;;;;;;5106034;27;20686;-82
2022/04/04 11:25:05;;;;;;;7.30;6.60;;;11.40;55.70;;;;;;5111957;27;20671;-81
2022/04/04 11:27:34;;;;;;;5.90;5.50;;;11.30;54.10;;;;;;5105853;27;21139;-82
2022/04/04 11:30:05;;;;;;;9.60;5.90;;;11.40;55.10;;;;;;5102063;27;20615;-82
2022/04/04 11:32:34;;;;;;;6.87;6.27;;;11.60;55.90;;;;;;5103427;27;20625;-83
2022/04/04 11:35:02;;;;;;;6.43;6.00;;;11.40;53.20;;;;;;5100608;27;20654;-82
2022/04/04 11:37:29;;;;;;;6.00;5.50;;;11.20;54.40;;;;;;5106624;27;21181;-82
2022/04/04 11:40:08;;;;;;;6.43;5.93;;;11.20;54.30;;;;;;5108592;27;20631;-82
2022/04/04 11:42:41;;;;;;;6.23;5.73;;;11.10;53.90;;;;;;5104320;27;20615;-82
2022/04/04 11:45:11;;;;;;;5.30;4.90;;;11.10;53.00;;;;;;5105160;27;20724;-82
2022/04/04 11:47:39;;;;;;;6.10;5.63;;;11.20;53.20;;;;;;5106806;27;20696;-82
2022/04/04 11:50:08;;;;;;;6.07;5.60;;;11.40;53.60;;;;;;5105514;27;20985;-82
2022/04/04 11:52:46;;;;;;;5.43;4.70;;;11.70;53.50;;;;;;5109193;27;20979;-82
2022/04/04 11:55:16;;;;;;;5.50;5.10;;;12.10;52.40;;;;;;5104900;27;20674;-82
2022/04/04 11:57:46;;;;;;;5.60;5.20;;;12.40;52.40;;;;;;5102171;27;21170;-82
2022/04/04 12:00:25;;;;;;;5.47;5.07;;;12.70;52.40;;;;;;5112984;27;21805;-82
2022/04/04 12:02:52;;;;;;;6.33;4.70;;;13.00;52.10;;;;;;5108562;27;20633;-82
2022/04/04 12:05:22;;;;;;;5.17;4.77;;;13.40;51.10;;;;;;5106346;27;20671;-82
2022/04/04 12:07:50;;;;;;;5.27;4.77;;;13.40;51.10;;;;;;5107779;27;20986;-83
2022/04/04 12:10:29;;;;;;;4.90;4.50;;;13.40;50.50;;;;;;5100626;27;20623;-82
2022/04/04 12:13:02;;;;;;;4.63;4.33;;;13.50;50.00;;;;;;5109737;27;20602;-84
2022/04/04 12:15:32;;;;;;;5.30;4.80;;;13.40;50.00;;;;;;5102705;27;20673;-83
2022/04/04 12:18:00;;;;;;;5.33;4.93;;;13.50;50.10;;;;;;5105309;27;20627;-82
2022/04/04 12:20:36;;;;;;;5.03;4.53;;;13.50;48.50;;;;;;5107359;27;20616;-83
2022/04/04 12:25:47;;;;;;;5.07;4.53;;;13.80;47.60;;;;;;5108373;27;20686;-83
2022/04/04 12:28:25;;;;;;;6.00;5.60;;;13.80;47.40;;;;;;5105092;27;20623;-82
2022/04/04 12:30:54;;;;;;;4.57;4.27;;;13.80;47.40;;;;;;5110100;27;21473;-81
2022/04/04 12:33:28;;;;;;;6.40;5.07;;;13.90;48.50;;;;;;5106414;27;21040;-83
2022/04/04 12:35:55;;;;;;;4.87;4.47;;;13.90;48.60;;;;;;5102380;27;20665;-83
2022/04/04 12:38:27;;;;;;;5.90;5.50;;;13.80;48.30;;;;;;5105486;27;20663;-83
2022/04/04 12:41:09;;;;;;;5.63;5.13;;;13.90;48.30;;;;;;5109693;27;20627;-81
2022/04/04 12:43:38;;;;;;;5.60;5.23;;;13.90;48.00;;;;;;5100206;27;20659;-81
2022/04/04 12:46:08;;;;;;;5.23;4.77;;;13.90;47.90;;;;;;5103387;27;20674;-81
2022/04/04 12:48:39;;;;;;;4.87;4.57;;;13.60;47.50;;;;;;5105443;27;20623;-81
2022/04/04 12:51:07;;;;;;;5.50;5.10;;;13.40;47.70;;;;;;5103749;27;20738;-82
2022/04/04 12:53:48;;;;;;;6.30;5.40;;;13.40;48.70;;;;;;5108766;27;20845;-83